Fazenda São Miguel Airstrip

BR-0045 · Goiás, Brasile

Storia di METAR BR-0045 · Fazenda São Miguel Airstrip

Di seguito sono riportati i METAR degli ultimi giorni. Seleziona un anno per sfogliare i METAR più vecchi, dall'anno 2007 in poi.

21 giugno 2024

Tempo Codice Tempo meteorologico Temp. Vista Base nuvolosa Vento METAR/SPECI
12:00
V
31 °C 10 km+ - 090° 090° 12 kt METAR SBBW 211500Z 09012KT CAVOK 31/16 Q1016
13:00
V
30 °C 10 km+ - 050° 050° 10 kt METAR SBBW 211600Z 05010KT 9999 FEW020 SCT080 30/19 Q1015
12:00
V
31 °C 10 km+ - 090° 090° 12 kt METAR SBBW 211500Z 09012KT CAVOK 31/16 Q1016
11:00
V
31 °C 10 km+ - 070° 070° 12 kt METAR SBBW 211400Z 07012KT CAVOK 31/16 Q1017
10:00
V
29 °C 10 km+ - 080° 080° 7 kt METAR SBBW 211300Z 08007KT CAVOK 29/16 Q1017
09:00
V
24 °C 10 km+ - 360° 360° 0 kt METAR SBBW 211200Z 00000KT 9999 FEW030 24/17 Q1017

20 giugno 2024

Tempo Codice Tempo meteorologico Temp. Vista Base nuvolosa Vento METAR/SPECI
18:00
V
28 °C 10 km+ - 360° 360° 0 kt METAR SBBW 202100Z 00000KT CAVOK 28/14 Q1014
17:00
V
33 °C 10 km+ - 360° 360° 0 kt METAR SBBW 202000Z 00000KT CAVOK 33/14 Q1014
16:00
V
33 °C 10 km+ - 140° 140° 4 kt METAR SBBW 201900Z 14004KT CAVOK 33/13 Q1014
15:00
V
33 °C 10 km+ - 130° 130° 4 kt METAR SBBW 201800Z 13004KT 9999 FEW020 33/13 Q1015
14:00
V
34 °C 10 km+ - 100° 100° 7 kt METAR SBBW 201700Z 10007KT 9999 FEW020 34/20 Q1016
13:00
V
33 °C 10 km+ - 130° 130° 5 kt METAR SBBW 201600Z 13005KT CAVOK 33/13 Q1016
12:00
V
32 °C 10 km+ - 160° 160° 4 kt METAR SBBW 201500Z 16004KT CAVOK 32/14 Q1018
11:00
V
29 °C 10 km+ - 160° 160° 2 kt METAR SBBW 201400Z 16002KT CAVOK 29/14 Q1019
10:00
V
26 °C 10 km+ - 360° 360° 0 kt METAR SBBW 201300Z 00000KT CAVOK 26/15 Q1019
09:00
V
23 °C 10 km+ - 360° 360° 0 kt METAR SBBW 201200Z 00000KT CAVOK 23/16 Q1019

19 giugno 2024

Tempo Codice Tempo meteorologico Temp. Vista Base nuvolosa Vento METAR/SPECI
18:00
V
28 °C 10 km+ - 360° 360° 0 kt METAR SBBW 192100Z 00000KT CAVOK 28/15 Q1014
17:00
V
32 °C 10 km+ - 060° 060° 2 kt METAR SBBW 192000Z 06002KT CAVOK 32/19 Q1014
16:00
V
33 °C 10 km+ - 360° 360° 0 kt METAR SBBW 191900Z 00000KT CAVOK 33/17 Q1014
15:00
V
33 °C 10 km+ - 090° 090° 2 kt METAR SBBW 191800Z 09002KT CAVOK 33/17 Q1014
14:00
V
32 °C 10 km+ - 060° 060° 2 kt METAR SBBW 191700Z 06002KT CAVOK 32/16 Q1015
13:00
V
32 °C 10 km+ - 060° 060° 4 kt METAR SBBW 191600Z 06004KT CAVOK 32/15 Q1016
12:00
V
31 °C 10 km+ - 060° 060° 8 kt METAR SBBW 191500Z 06008KT CAVOK 31/14 Q1017
11:00
V
29 °C 10 km+ - 070° 070° 8 kt METAR SBBW 191400Z 07008KT CAVOK 29/15 Q1018
10:00
V
26 °C 10 km+ - 360° 360° 0 kt METAR SBBW 191300Z 00000KT CAVOK 26/15 Q1019
09:00
V
20 °C 10 km+ - 360° 360° 0 kt METAR SBBW 191200Z 00000KT CAVOK 20/13 Q1018
Segnala modifiche